createdAt,value
2022-11-16T00:02:23.926Z,5.46
2022-11-16T00:04:52.119Z,5.37
2022-11-16T00:07:20.296Z,5.31
2022-11-16T00:09:48.439Z,5.17
2022-11-16T00:12:17.903Z,5.19
2022-11-16T00:14:46.067Z,5.19
2022-11-16T00:17:14.178Z,5.22
2022-11-16T00:19:42.829Z,5.24
2022-11-16T00:22:10.912Z,5.25
2022-11-16T00:24:39.475Z,5.20
2022-11-16T00:27:07.567Z,5.18
2022-11-16T00:29:37.074Z,5.12
2022-11-16T00:32:05.465Z,5.04
2022-11-16T00:34:33.527Z,5.12
2022-11-16T00:37:01.599Z,4.99
2022-11-16T00:39:29.726Z,4.99
2022-11-16T00:41:57.963Z,4.93
2022-11-16T00:44:26.121Z,4.79
2022-11-16T00:46:56.033Z,4.87
2022-11-16T00:49:24.598Z,4.81
2022-11-16T00:51:53.298Z,4.87
2022-11-16T00:54:22.356Z,4.82
2022-11-16T00:56:50.816Z,4.78
2022-11-16T00:59:19.040Z,4.81
2022-11-16T01:01:47.309Z,4.98
2022-11-16T01:04:17.040Z,4.84
2022-11-16T01:06:45.215Z,4.85
2022-11-16T01:09:13.493Z,4.93
2022-11-16T01:11:58.901Z,4.88
2022-11-16T01:14:26.969Z,4.94
2022-11-16T01:16:55.264Z,4.92
2022-11-16T01:19:24.807Z,4.96
2022-11-16T01:21:52.973Z,5.02
2022-11-16T01:24:23.017Z,5.06
2022-11-16T01:26:51.395Z,5.03
2022-11-16T01:29:20.342Z,5.00
2022-11-16T01:31:54.915Z,5.03
2022-11-16T01:34:24.774Z,5.05
2022-11-16T01:36:55.624Z,5.03
2022-11-16T01:39:24.689Z,5.00
2022-11-16T01:41:57.477Z,5.00
2022-11-16T01:44:58.301Z,5.10
2022-11-16T01:47:26.830Z,5.07
2022-11-16T01:50:00.704Z,5.07
2022-11-16T01:52:36.690Z,5.03
2022-11-16T01:55:08.180Z,5.06
2022-11-16T01:57:50.142Z,5.09
2022-11-16T02:00:19.085Z,5.10
2022-11-16T02:03:00.735Z,5.13
2022-11-16T02:05:52.541Z,5.08
2022-11-16T02:08:48.223Z,5.15
2022-11-16T02:11:34.427Z,5.18
2022-11-16T02:14:11.943Z,5.25
2022-11-16T02:16:48.198Z,5.24
2022-11-16T02:19:35.842Z,5.24
2022-11-16T02:22:15.344Z,5.27
2022-11-16T02:24:44.880Z,5.32
2022-11-16T02:27:49.169Z,5.27
2022-11-16T02:30:19.904Z,5.29
2022-11-16T02:32:52.822Z,5.36
2022-11-16T02:35:23.036Z,5.34
2022-11-16T02:37:53.025Z,5.28
2022-11-16T02:40:23.618Z,5.38
2022-11-16T02:42:53.857Z,5.36
2022-11-16T02:45:24.916Z,5.35
2022-11-16T02:47:55.564Z,5.35
2022-11-16T02:50:24.484Z,5.42
2022-11-16T02:52:55.721Z,5.42
2022-11-16T02:55:25.987Z,5.42
2022-11-16T02:57:55.926Z,5.28
2022-11-16T03:00:32.038Z,5.26
2022-11-16T03:03:10.423Z,5.32
2022-11-16T03:05:41.490Z,5.38
2022-11-16T03:08:17.731Z,5.49
2022-11-16T03:11:06.447Z,5.48
2022-11-16T03:13:35.543Z,5.42
2022-11-16T03:16:09.441Z,5.35
2022-11-16T03:18:40.000Z,5.43
2022-11-16T03:21:13.783Z,5.46
2022-11-16T03:23:45.598Z,5.50
2022-11-16T03:26:16.524Z,5.49
2022-11-16T03:28:53.402Z,5.53
2022-11-16T03:31:27.419Z,5.56
2022-11-16T03:33:58.455Z,5.65
2022-11-16T03:36:29.275Z,5.67
2022-11-16T03:39:01.269Z,5.66
2022-11-16T03:41:30.427Z,5.66
2022-11-16T03:43:59.352Z,5.57
2022-11-16T03:46:29.024Z,5.59
2022-11-16T03:48:58.119Z,5.60
2022-11-16T03:51:29.307Z,5.64
2022-11-16T03:53:58.109Z,5.69
2022-11-16T03:56:26.411Z,5.75
2022-11-16T03:58:54.705Z,5.78
2022-11-16T04:01:22.945Z,5.71
2022-11-16T04:03:53.189Z,5.68
2022-11-16T04:06:39.108Z,5.73
2022-11-16T04:09:24.574Z,5.75
2022-11-16T04:12:10.414Z,5.77
2022-11-16T04:14:57.261Z,5.75
2022-11-16T04:17:45.721Z,5.65
2022-11-16T04:20:34.566Z,5.64
2022-11-16T04:23:23.165Z,5.65
2022-11-16T04:25:52.965Z,5.63
2022-11-16T04:28:22.049Z,5.65
2022-11-16T04:31:16.694Z,5.66
2022-11-16T04:34:16.974Z,5.45
2022-11-16T04:37:09.096Z,5.60
2022-11-16T04:39:37.209Z,5.53
2022-11-16T04:42:15.505Z,5.64
2022-11-16T04:45:03.248Z,5.59
2022-11-16T04:47:41.022Z,5.66
2022-11-16T04:50:10.089Z,5.41
2022-11-16T04:52:40.651Z,5.56
2022-11-16T04:55:12.349Z,5.44
2022-11-16T04:57:43.539Z,5.46
2022-11-16T05:00:15.283Z,5.53
2022-11-16T05:02:44.355Z,5.51
2022-11-16T05:05:13.384Z,5.47
2022-11-16T05:07:52.549Z,5.53
2022-11-16T05:10:33.893Z,5.44
2022-11-16T05:13:02.586Z,5.59
2022-11-16T05:15:30.966Z,5.57
2022-11-16T05:18:00.883Z,5.57
2022-11-16T05:20:47.717Z,5.61
2022-11-16T05:23:34.715Z,5.67
2022-11-16T05:26:08.925Z,5.77
2022-11-16T05:28:37.346Z,5.79
2022-11-16T05:31:06.014Z,5.82
2022-11-16T05:33:34.074Z,5.90
2022-11-16T05:36:02.118Z,5.89
2022-11-16T05:38:32.159Z,5.87
2022-11-16T05:41:01.966Z,5.89
2022-11-16T05:43:30.778Z,5.88
2022-11-16T05:46:17.171Z,5.89
2022-11-16T05:48:46.323Z,5.95
2022-11-16T05:51:25.420Z,5.98
2022-11-16T05:54:01.790Z,5.98
2022-11-16T05:56:41.859Z,5.88
2022-11-16T05:59:15.287Z,5.93
2022-11-16T06:01:46.256Z,5.98
2022-11-16T06:04:15.218Z,6.00
2022-11-16T06:06:44.425Z,6.00
2022-11-16T06:09:15.476Z,6.04
2022-11-16T06:11:50.485Z,6.05
2022-11-16T10:42:09.612Z,6.64
2022-11-16T10:45:22.979Z,6.72
2022-11-16T10:48:05.357Z,6.80
2022-11-16T10:50:38.791Z,6.84
2022-11-16T10:53:07.889Z,6.95
2022-11-16T10:55:42.261Z,6.90
2022-11-16T10:58:19.052Z,6.97
2022-11-16T11:00:52.048Z,7.06
2022-11-16T11:04:15.368Z,6.91
2022-11-16T11:08:29.528Z,7.04
2022-11-16T11:15:36.700Z,7.11
2022-11-16T11:19:28.854Z,7.19
2022-11-16T12:33:11.713Z,8.00
2022-11-16T12:37:19.802Z,8.09
2022-11-16T12:46:30.887Z,8.28
2022-11-16T13:28:35.597Z,8.69
2022-11-16T13:31:07.316Z,8.68
2022-11-16T13:33:49.337Z,8.52
2022-11-16T13:36:43.740Z,8.62
2022-11-16T13:39:18.671Z,8.64
2022-11-16T13:41:50.747Z,8.72
